Time;durP1;ratioP1;P1;durP2;ratioP2;P2;SDS_P1;SDS_P2;PMS_P1;PMS_P2;Temp;Humidity;BMP_temperature;BMP_pressure;BME280_temperature;BME280_humidity;BME280_pressure;Samples;Min_cycle;Max_cycle;Signal;HPM_P1;HPM_P2
2023/12/15 00:02:24;;;;;;;70.97;33.72;;;5.10;99.90;;;;;;4919845;29;20559;-68
2023/12/15 00:04:50;;;;;;;72.10;34.08;;;5.10;99.90;;;;;;4872425;29;20135;-69
2023/12/15 00:07:15;;;;;;;78.82;35.45;;;5.20;99.90;;;;;;4919229;29;20050;-69
2023/12/15 00:09:42;;;;;;;80.65;35.95;;;5.10;99.90;;;;;;4904235;29;20052;-68
2023/12/15 00:12:08;;;;;;;65.93;31.13;;;5.20;99.90;;;;;;4936467;29;20055;-68
2023/12/15 00:14:34;;;;;;;68.43;32.55;;;5.20;99.90;;;;;;4919244;29;20043;-68
2023/12/15 00:16:59;;;;;;;84.43;37.35;;;5.20;99.90;;;;;;4888114;29;20070;-69
2023/12/15 00:19:25;;;;;;;74.85;35.05;;;5.20;99.90;;;;;;4935311;29;20441;-69
2023/12/15 00:21:51;;;;;;;74.55;34.30;;;5.20;99.90;;;;;;4919420;29;20048;-69
2023/12/15 00:24:16;;;;;;;97.00;38.78;;;5.30;99.90;;;;;;4903363;29;20054;-69
2023/12/15 00:26:42;;;;;;;75.45;35.47;;;5.20;99.90;;;;;;4903480;29;20044;-68
2023/12/15 00:29:08;;;;;;;72.63;35.88;;;5.20;99.90;;;;;;4935152;29;20039;-68
2023/12/15 00:31:35;;;;;;;83.55;37.90;;;5.20;99.90;;;;;;4918891;29;20043;-69
2023/12/15 00:34:00;;;;;;;75.50;36.63;;;5.30;99.90;;;;;;4919171;29;20051;-71
2023/12/15 00:36:27;;;;;;;81.80;38.75;;;5.30;99.90;;;;;;4919052;29;20373;-71
2023/12/15 00:38:53;;;;;;;82.65;39.40;;;5.30;99.90;;;;;;4934889;29;20040;-72
2023/12/15 00:41:19;;;;;;;102.00;42.00;;;5.30;99.90;;;;;;4903328;29;20097;-72
2023/12/15 00:43:44;;;;;;;106.55;42.65;;;5.30;99.90;;;;;;4918857;29;20046;-72
2023/12/15 00:46:10;;;;;;;80.72;38.53;;;5.30;99.90;;;;;;4918771;29;20046;-71
2023/12/15 00:48:36;;;;;;;97.80;43.28;;;5.30;99.90;;;;;;4934729;29;20040;-72
2023/12/15 00:51:01;;;;;;;110.13;45.00;;;5.30;99.90;;;;;;4934558;29;20054;-72
2023/12/15 00:53:32;;;;;;;86.55;39.65;;;5.40;99.90;;;;;;4935838;29;20039;-72
2023/12/15 00:55:59;;;;;;;88.20;40.20;;;5.40;99.90;;;;;;4889074;29;20135;-72
2023/12/15 00:58:24;;;;;;;84.82;40.30;;;5.40;99.90;;;;;;4918654;29;20048;-72
2023/12/15 01:00:50;;;;;;;93.43;41.65;;;5.40;99.90;;;;;;4934541;29;20408;-71
2023/12/15 01:03:16;;;;;;;93.38;42.63;;;5.40;99.90;;;;;;4950498;29;20036;-72
2023/12/15 01:05:41;;;;;;;88.70;42.03;;;5.40;99.90;;;;;;4918543;29;20043;-72
2023/12/15 01:08:07;;;;;;;90.57;43.70;;;5.50;99.90;;;;;;4902914;29;20408;-71
2023/12/15 01:10:33;;;;;;;83.78;39.47;;;5.50;99.90;;;;;;4918865;29;20048;-72
2023/12/15 01:12:58;;;;;;;81.70;40.80;;;5.50;99.90;;;;;;4902835;29;20042;-72
2023/12/15 01:15:24;;;;;;;83.00;39.72;;;5.50;99.90;;;;;;4902601;29;20068;-72
2023/12/15 01:17:50;;;;;;;91.57;44.15;;;5.60;99.90;;;;;;4917571;29;20439;-72
2023/12/15 01:20:17;;;;;;;98.28;45.15;;;5.60;99.90;;;;;;4918262;29;20039;-72
2023/12/15 01:22:43;;;;;;;91.70;43.58;;;5.60;99.90;;;;;;4934236;29;20043;-72
2023/12/15 01:25:09;;;;;;;96.75;45.03;;;5.60;99.90;;;;;;4918490;29;20048;-72
2023/12/15 01:27:35;;;;;;;101.05;45.88;;;5.60;99.90;;;;;;4902800;29;20044;-71
2023/12/15 01:30:01;;;;;;;90.45;44.83;;;5.60;99.90;;;;;;4918368;29;20050;-72
2023/12/15 01:32:27;;;;;;;108.10;47.75;;;5.60;99.90;;;;;;4918188;29;20162;-72
2023/12/15 01:34:52;;;;;;;118.38;50.00;;;5.70;99.90;;;;;;4918320;29;20043;-72
2023/12/15 01:37:18;;;;;;;103.85;46.60;;;5.70;99.90;;;;;;4918328;29;20051;-72
2023/12/15 01:39:44;;;;;;;93.20;44.75;;;5.70;99.90;;;;;;4918204;29;20054;-72
2023/12/15 01:42:10;;;;;;;87.57;44.70;;;5.70;99.90;;;;;;4902529;29;20467;-72
2023/12/15 01:44:35;;;;;;;94.00;45.72;;;5.70;99.90;;;;;;4902668;29;20127;-69
2023/12/15 01:47:02;;;;;;;85.28;43.63;;;5.70;99.90;;;;;;4918171;29;20452;-69
2023/12/15 01:49:29;;;;;;;98.63;47.28;;;5.70;99.90;;;;;;4918057;29;20075;-69
2023/12/15 01:51:55;;;;;;;116.55;50.05;;;5.70;99.90;;;;;;4918114;29;20043;-69
2023/12/15 01:54:21;;;;;;;97.05;46.25;;;5.70;99.90;;;;;;4918412;29;20535;-69
2023/12/15 01:56:46;;;;;;;116.78;51.10;;;5.80;99.90;;;;;;4918080;29;20131;-69
2023/12/15 01:59:12;;;;;;;115.53;50.95;;;5.80;99.90;;;;;;4902374;29;20456;-69
2023/12/15 02:01:38;;;;;;;140.38;53.90;;;5.80;99.90;;;;;;4918083;29;20048;-69
2023/12/15 02:04:04;;;;;;;121.28;52.35;;;5.80;99.90;;;;;;4935042;29;20408;-69
2023/12/15 02:06:30;;;;;;;134.52;54.50;;;5.80;99.90;;;;;;4902333;29;20071;-69
2023/12/15 02:08:56;;;;;;;120.10;52.75;;;5.80;99.90;;;;;;4918274;29;20036;-69
2023/12/15 02:11:21;;;;;;;115.38;51.42;;;5.90;99.90;;;;;;4917948;29;20043;-69
2023/12/15 02:13:47;;;;;;;103.85;49.63;;;5.90;99.90;;;;;;4886635;29;20412;-69
2023/12/15 02:16:13;;;;;;;104.60;49.97;;;5.80;99.90;;;;;;4902155;29;20081;-69
2023/12/15 02:18:38;;;;;;;107.38;49.50;;;5.90;99.90;;;;;;4902305;29;20051;-69
2023/12/15 02:21:04;;;;;;;105.50;49.67;;;5.90;99.90;;;;;;4918127;29;20079;-69
2023/12/15 02:23:30;;;;;;;155.77;56.95;;;5.90;99.90;;;;;;4901936;29;20130;-69
2023/12/15 02:25:56;;;;;;;104.10;50.72;;;5.90;99.90;;;;;;4934983;29;20118;-69
2023/12/15 02:28:22;;;;;;;106.22;48.70;;;5.90;99.90;;;;;;4918400;29;20054;-69
2023/12/15 02:30:47;;;;;;;117.30;51.67;;;5.90;99.90;;;;;;4921330;29;20044;-69
2023/12/15 02:33:14;;;;;;;155.32;58.22;;;6.00;99.90;;;;;;4938513;29;20487;-68
2023/12/15 02:35:43;;;;;;;110.68;52.17;;;6.00;99.90;;;;;;4936985;29;20126;-69
2023/12/15 02:38:08;;;;;;;105.68;51.35;;;6.00;99.90;;;;;;4921256;29;20103;-69
2023/12/15 02:40:35;;;;;;;130.88;55.67;;;6.00;99.90;;;;;;4905342;29;20445;-69
2023/12/15 02:43:01;;;;;;;99.85;49.08;;;6.00;99.90;;;;;;4905417;29;20035;-69
2023/12/15 02:45:27;;;;;;;123.00;54.58;;;6.20;99.90;;;;;;4905240;29;20105;-69
2023/12/15 02:47:53;;;;;;;117.53;53.92;;;6.10;99.90;;;;;;4921288;29;20145;-69
2023/12/15 02:50:19;;;;;;;116.43;54.00;;;6.10;99.90;;;;;;4920930;29;20082;-70
2023/12/15 02:52:44;;;;;;;121.00;53.55;;;6.10;99.90;;;;;;4921129;29;20179;-69
2023/12/15 02:55:12;;;;;;;110.22;51.47;;;6.10;99.90;;;;;;4889735;29;20054;-69
2023/12/15 02:57:39;;;;;;;116.97;53.78;;;6.10;99.90;;;;;;4920931;29;20055;-69
2023/12/15 03:00:06;;;;;;;123.65;54.63;;;6.10;99.90;;;;;;4920747;29;20051;-69
2023/12/15 03:02:32;;;;;;;113.80;52.20;;;6.10;99.90;;;;;;4920928;29;20048;-69
2023/12/15 03:04:57;;;;;;;108.80;52.78;;;6.20;99.90;;;;;;4920646;29;20040;-69
2023/12/15 03:07:23;;;;;;;127.70;56.00;;;6.20;99.90;;;;;;4920888;29;20036;-69
2023/12/15 03:09:49;;;;;;;117.55;54.03;;;6.20;99.90;;;;;;4920702;29;20040;-69
2023/12/15 03:12:15;;;;;;;116.35;54.75;;;6.20;99.90;;;;;;4920596;29;20073;-69
2023/12/15 03:14:41;;;;;;;112.68;54.33;;;6.20;99.90;;;;;;4936106;29;20051;-69
2023/12/15 03:17:06;;;;;;;115.78;55.53;;;6.20;99.90;;;;;;4920434;29;20086;-69
2023/12/15 03:19:32;;;;;;;98.10;51.28;;;6.20;99.90;;;;;;4904576;29;20475;-69
2023/12/15 03:21:58;;;;;;;114.63;55.25;;;6.20;99.90;;;;;;4920554;29;20071;-69
2023/12/15 03:24:23;;;;;;;116.97;54.70;;;6.30;99.90;;;;;;4936079;29;20047;-69
2023/12/15 03:26:49;;;;;;;120.82;55.50;;;6.30;99.90;;;;;;4920482;29;20256;-69
2023/12/15 03:29:15;;;;;;;104.82;53.65;;;6.30;99.90;;;;;;4936183;29;20040;-69
2023/12/15 03:31:41;;;;;;;107.18;53.08;;;6.30;99.90;;;;;;4920284;29;20416;-69
2023/12/15 03:34:07;;;;;;;105.88;51.97;;;6.30;99.90;;;;;;4936361;29;20044;-70
2023/12/15 03:36:38;;;;;;;110.72;54.85;;;6.30;99.90;;;;;;4920241;29;20043;-69
2023/12/15 03:39:05;;;;;;;107.00;52.95;;;6.30;99.90;;;;;;4936643;29;20116;-69
2023/12/15 03:41:32;;;;;;;109.30;54.08;;;6.40;99.90;;;;;;4935133;29;20055;-69
2023/12/15 03:43:57;;;;;;;104.18;51.63;;;6.40;99.90;;;;;;4935994;29;20044;-69
2023/12/15 03:46:23;;;;;;;105.30;52.53;;;6.40;99.90;;;;;;4935939;29;20048;-69
2023/12/15 03:48:49;;;;;;;106.43;52.00;;;6.50;99.90;;;;;;4919862;29;20074;-69
2023/12/15 03:51:14;;;;;;;107.78;53.10;;;6.50;99.90;;;;;;4888641;29;20036;-69
2023/12/15 03:53:40;;;;;;;109.32;53.20;;;6.50;99.90;;;;;;4935911;29;20146;-69
2023/12/15 03:56:08;;;;;;;114.72;52.67;;;6.50;99.90;;;;;;4951730;29;20152;-69
2023/12/15 03:58:33;;;;;;;99.30;48.38;;;6.50;99.90;;;;;;4935521;29;20048;-70
2023/12/15 04:00:59;;;;;;;105.95;51.15;;;6.50;99.90;;;;;;4919798;29;20072;-69
2023/12/15 04:03:25;;;;;;;108.75;50.30;;;6.50;99.90;;;;;;4951649;29;20039;-69
2023/12/15 04:05:50;;;;;;;110.50;50.63;;;6.60;99.90;;;;;;4919610;29;20091;-69
2023/12/15 04:08:16;;;;;;;105.90;50.00;;;6.60;99.90;;;;;;4919851;29;20476;-70
2023/12/15 04:10:42;;;;;;;113.90;51.55;;;6.60;99.90;;;;;;4919886;29;20044;-69
2023/12/15 04:13:07;;;;;;;108.65;49.92;;;6.60;99.90;;;;;;4919693;29;20046;-69
2023/12/15 04:15:33;;;;;;;109.05;48.90;;;6.60;99.90;;;;;;4888137;29;20114;-69
2023/12/15 04:18:04;;;;;;;123.50;52.70;;;6.60;99.90;;;;;;4903693;29;20051;-69
2023/12/15 04:20:30;;;;;;;120.65;52.72;;;6.70;99.90;;;;;;4919641;29;20467;-69
2023/12/15 04:22:57;;;;;;;114.93;50.22;;;6.70;99.90;;;;;;4919192;29;20043;-69
2023/12/15 04:25:22;;;;;;;125.10;50.88;;;6.70;99.90;;;;;;4903674;29;20098;-69
2023/12/15 04:27:48;;;;;;;109.05;47.97;;;6.70;99.90;;;;;;4903465;29;20091;-68
2023/12/15 04:30:14;;;;;;;117.50;49.97;;;6.70;99.90;;;;;;4935518;29;20058;-69
2023/12/15 04:32:40;;;;;;;122.18;49.60;;;6.70;99.90;;;;;;4950927;29;20044;-69
2023/12/15 04:35:06;;;;;;;122.18;53.10;;;6.70;99.90;;;;;;4903318;29;20075;-69
2023/12/15 04:37:31;;;;;;;116.20;51.40;;;6.70;99.90;;;;;;4919108;29;20055;-69
2023/12/15 04:39:57;;;;;;;111.93;48.83;;;6.70;99.90;;;;;;4903515;29;20047;-69
2023/12/15 04:42:23;;;;;;;122.88;51.17;;;6.80;99.90;;;;;;4934567;29;20044;-69
2023/12/15 04:44:49;;;;;;;148.75;54.20;;;6.80;99.90;;;;;;4934936;29;20046;-69
2023/12/15 04:47:14;;;;;;;113.72;50.00;;;6.70;99.90;;;;;;4934764;29;20050;-69
2023/12/15 04:49:40;;;;;;;112.45;50.97;;;6.70;99.90;;;;;;4919073;29;20053;-69
2023/12/15 04:52:06;;;;;;;108.35;47.90;;;6.70;99.90;;;;;;4887680;29;20036;-69
2023/12/15 04:54:32;;;;;;;116.85;48.83;;;6.70;99.90;;;;;;4903075;29;20062;-69
2023/12/15 04:56:57;;;;;;;109.97;47.85;;;6.80;99.90;;;;;;4918703;29;20047;-69
2023/12/15 04:59:23;;;;;;;114.32;47.95;;;6.80;99.90;;;;;;4918673;29;20044;-70
2023/12/15 05:01:49;;;;;;;113.57;48.60;;;6.80;99.90;;;;;;4918571;29;20094;-70
2023/12/15 05:04:14;;;;;;;112.30;46.88;;;6.80;99.90;;;;;;4918423;29;20059;-70
2023/12/15 05:06:40;;;;;;;109.05;46.80;;;6.80;99.90;;;;;;4918658;29;20408;-69
2023/12/15 05:09:08;;;;;;;115.55;46.72;;;6.80;99.90;;;;;;4918453;29;20130;-69
2023/12/15 05:11:35;;;;;;;104.07;45.10;;;6.80;99.90;;;;;;4934556;29;20058;-69
2023/12/15 05:14:01;;;;;;;126.78;48.60;;;6.80;99.90;;;;;;4903133;29;20047;-72
2023/12/15 05:16:28;;;;;;;108.97;45.30;;;6.80;99.90;;;;;;4918424;29;20055;-72
2023/12/15 05:18:55;;;;;;;116.15;46.67;;;6.80;99.90;;;;;;4918468;29;20105;-73
2023/12/15 05:21:21;;;;;;;119.25;48.60;;;6.80;99.90;;;;;;4934242;29;20051;-72
2023/12/15 05:23:47;;;;;;;117.57;46.80;;;6.90;99.90;;;;;;4934131;29;20058;-72
2023/12/15 05:26:12;;;;;;;121.88;48.63;;;6.90;99.90;;;;;;4934533;29;20130;-72
2023/12/15 05:28:38;;;;;;;128.20;49.40;;;6.90;99.90;;;;;;4902542;29;20051;-72
2023/12/15 05:31:04;;;;;;;123.43;48.35;;;6.90;99.90;;;;;;4934191;29;20043;-72
2023/12/15 05:33:30;;;;;;;119.53;47.30;;;6.90;99.90;;;;;;4950168;29;20504;-72
2023/12/15 05:35:56;;;;;;;125.72;48.25;;;6.90;99.90;;;;;;4918238;29;20506;-72
2023/12/15 05:38:21;;;;;;;124.63;46.70;;;6.90;99.90;;;;;;4918345;29;20082;-73
2023/12/15 05:40:47;;;;;;;110.20;44.25;;;6.90;99.90;;;;;;4902493;29;20463;-72
2023/12/15 05:43:13;;;;;;;121.47;46.42;;;6.90;99.90;;;;;;4918149;29;20048;-72
2023/12/15 05:45:39;;;;;;;116.70;45.00;;;6.90;99.90;;;;;;4918120;29;20051;-72
2023/12/15 05:48:05;;;;;;;112.68;46.10;;;6.80;99.90;;;;;;4902518;29;20036;-72
2023/12/15 05:50:30;;;;;;;109.75;43.33;;;6.90;99.90;;;;;;4918457;29;20126;-73
2023/12/15 05:52:56;;;;;;;117.70;43.85;;;6.90;99.90;;;;;;4887221;29;20126;-73
2023/12/15 05:55:22;;;;;;;108.72;43.30;;;6.80;99.90;;;;;;4933944;29;20138;-72
2023/12/15 05:57:48;;;;;;;97.72;40.33;;;6.90;99.90;;;;;;4918245;29;20051;-72
2023/12/15 06:00:14;;;;;;;110.82;43.30;;;6.80;99.90;;;;;;4933848;29;20043;-73
2023/12/15 06:02:40;;;;;;;112.95;42.00;;;6.90;99.90;;;;;;4949841;29;20098;-73
2023/12/15 06:05:06;;;;;;;105.10;42.47;;;6.80;99.90;;;;;;4921239;29;20134;-72
2023/12/15 06:07:33;;;;;;;106.78;41.80;;;6.80;99.90;;;;;;4921693;29;20600;-73
2023/12/15 06:09:59;;;;;;;107.75;41.97;;;6.80;99.90;;;;;;4921613;29;20043;-72
2023/12/15 06:12:25;;;;;;;111.47;42.13;;;6.80;99.90;;;;;;4937651;29;20039;-72
2023/12/15 06:14:51;;;;;;;101.47;42.13;;;6.90;99.90;;;;;;4921688;29;20079;-72
2023/12/15 06:17:17;;;;;;;111.38;42.30;;;6.80;99.90;;;;;;4921563;29;20051;-72
2023/12/15 06:19:42;;;;;;;109.57;42.95;;;6.80;99.90;;;;;;4921838;29;20048;-72
2023/12/15 06:22:08;;;;;;;112.90;42.20;;;6.80;99.90;;;;;;4921644;29;20048;-72
2023/12/15 06:24:34;;;;;;;108.70;40.70;;;6.80;99.90;;;;;;4906315;29;20091;-69
2023/12/15 06:27:00;;;;;;;108.28;41.20;;;6.80;99.90;;;;;;4905663;29;20102;-69
2023/12/15 06:29:25;;;;;;;103.55;39.85;;;6.80;99.90;;;;;;4905839;29;20441;-69
2023/12/15 06:31:51;;;;;;;107.88;41.38;;;6.80;99.90;;;;;;4937101;29;20052;-69
2023/12/15 06:34:17;;;;;;;126.28;42.38;;;6.80;99.90;;;;;;4921586;29;20101;-69
2023/12/15 06:36:42;;;;;;;102.25;39.53;;;6.80;99.90;;;;;;4937187;29;20047;-69
2023/12/15 06:39:08;;;;;;;101.80;39.15;;;6.80;99.90;;;;;;4937423;29;20044;-69
2023/12/15 06:41:34;;;;;;;111.72;41.17;;;6.70;99.90;;;;;;4952907;29;20046;-69
2023/12/15 06:44:00;;;;;;;108.82;40.45;;;6.70;99.90;;;;;;4889771;29;20047;-69
2023/12/15 06:46:26;;;;;;;94.28;37.65;;;6.70;99.90;;;;;;4936890;29;20044;-69
2023/12/15 06:48:53;;;;;;;111.18;37.47;;;6.70;99.90;;;;;;4905272;29;20507;-70
2023/12/15 06:51:19;;;;;;;105.72;38.58;;;6.80;99.90;;;;;;4905586;29;20408;-69
2023/12/15 06:53:45;;;;;;;106.63;38.78;;;6.80;99.90;;;;;;4921005;29;20043;-69
2023/12/15 06:56:11;;;;;;;109.22;37.92;;;6.70;99.90;;;;;;4936820;29;20039;-69
2023/12/15 06:58:37;;;;;;;111.95;40.22;;;6.80;99.90;;;;;;4889556;29;20035;-70
2023/12/15 07:01:03;;;;;;;105.88;36.97;;;6.80;99.90;;;;;;4920340;29;20047;-70
2023/12/15 07:03:28;;;;;;;106.97;38.40;;;6.80;99.90;;;;;;4920606;29;20040;-69
2023/12/15 07:05:54;;;;;;;105.30;38.15;;;6.80;99.90;;;;;;4936381;29;20071;-69
2023/12/15 07:08:20;;;;;;;111.75;38.63;;;6.70;99.90;;;;;;4936735;29;20055;-69
2023/12/15 07:10:46;;;;;;;107.43;38.58;;;6.80;99.90;;;;;;4936541;29;20043;-69
2023/12/15 07:13:11;;;;;;;96.88;36.05;;;6.80;99.90;;;;;;4920643;29;20047;-70
2023/12/15 07:15:37;;;;;;;96.93;38.15;;;6.80;99.90;;;;;;4887786;29;20138;-70
2023/12/15 07:18:03;;;;;;;107.75;38.83;;;6.80;99.90;;;;;;4920638;29;20056;-69
2023/12/15 07:20:29;;;;;;;120.50;40.67;;;6.80;99.90;;;;;;4920703;29;20035;-69
2023/12/15 07:22:55;;;;;;;114.20;39.33;;;6.80;99.90;;;;;;4920494;29;20047;-69
2023/12/15 07:25:24;;;;;;;114.50;39.90;;;6.80;99.90;;;;;;4904603;29;20496;-69
2023/12/15 07:27:50;;;;;;;125.78;41.25;;;6.70;99.90;;;;;;4889407;29;20044;-69
2023/12/15 07:30:16;;;;;;;120.68;39.63;;;6.80;99.90;;;;;;4904825;29;20095;-69
2023/12/15 07:32:42;;;;;;;113.07;39.95;;;6.80;99.90;;;;;;4920547;29;20043;-69
2023/12/15 07:35:08;;;;;;;114.82;39.45;;;6.80;99.90;;;;;;4920261;29;20056;-69
2023/12/15 07:37:34;;;;;;;113.88;37.45;;;6.80;99.90;;;;;;4904757;29;20052;-69
2023/12/15 07:40:00;;;;;;;119.47;40.72;;;6.80;99.90;;;;;;4936205;29;20062;-69
2023/12/15 07:42:26;;;;;;;120.70;40.78;;;6.80;99.90;;;;;;4920369;29;20044;-69
2023/12/15 07:44:52;;;;;;;113.70;39.30;;;6.80;99.90;;;;;;4919984;29;20047;-70
2023/12/15 07:47:18;;;;;;;118.15;39.05;;;6.80;99.90;;;;;;4888776;29;20047;-69
2023/12/15 07:49:43;;;;;;;120.55;40.75;;;6.90;99.90;;;;;;4920195;29;20048;-69
2023/12/15 07:52:09;;;;;;;114.55;40.35;;;6.80;99.90;;;;;;4919778;29;20047;-69
2023/12/15 07:54:35;;;;;;;118.03;38.15;;;6.90;99.90;;;;;;4935675;29;20066;-69
2023/12/15 07:57:00;;;;;;;111.45;38.08;;;6.80;99.90;;;;;;4935682;29;20460;-69
2023/12/15 07:59:26;;;;;;;107.30;37.40;;;6.80;99.90;;;;;;4935530;29;20462;-70
2023/12/15 08:01:54;;;;;;;100.18;36.95;;;6.90;99.90;;;;;;4920055;29;20138;-69
2023/12/15 08:04:21;;;;;;;114.13;37.38;;;6.90;99.90;;;;;;4919720;29;20052;-69
2023/12/15 08:06:46;;;;;;;100.13;35.90;;;6.90;99.90;;;;;;4951533;29;20043;-69
2023/12/15 08:09:12;;;;;;;112.28;37.58;;;6.90;99.90;;;;;;4935531;29;20123;-69
2023/12/15 08:11:38;;;;;;;111.70;37.83;;;6.90;99.90;;;;;;4919414;29;20127;-69
2023/12/15 08:14:04;;;;;;;100.13;36.58;;;6.90;99.90;;;;;;4919512;29;20052;-69
2023/12/15 08:16:34;;;;;;;94.97;35.88;;;6.90;99.90;;;;;;4919270;29;20056;-69
2023/12/15 08:19:03;;;;;;;101.55;36.58;;;6.90;99.90;;;;;;4951143;29;20057;-69
2023/12/15 08:21:29;;;;;;;97.55;36.35;;;6.90;99.90;;;;;;4919577;29;20130;-69
2023/12/15 08:23:54;;;;;;;93.13;35.75;;;7.00;99.90;;;;;;4935316;29;20130;-69
2023/12/15 08:26:23;;;;;;;88.57;34.15;;;7.00;99.90;;;;;;4903228;29;20051;-70
2023/12/15 08:28:49;;;;;;;97.78;34.30;;;7.00;99.90;;;;;;4935248;29;20118;-69
2023/12/15 08:31:16;;;;;;;86.80;34.45;;;7.00;99.90;;;;;;4919241;29;20102;-69
2023/12/15 08:33:42;;;;;;;93.55;36.30;;;7.00;99.90;;;;;;4903728;29;20496;-70
2023/12/15 08:36:09;;;;;;;85.60;32.38;;;7.00;99.90;;;;;;4919160;29;20051;-69
2023/12/15 08:38:35;;;;;;;94.18;35.33;;;7.00;99.90;;;;;;4919323;29;20035;-69
2023/12/15 08:41:01;;;;;;;83.25;33.08;;;7.10;99.90;;;;;;4919162;29;20090;-69
2023/12/15 08:43:27;;;;;;;89.45;34.17;;;7.10;99.90;;;;;;4934831;29;20130;-69
2023/12/15 08:45:53;;;;;;;88.20;34.15;;;7.10;99.90;;;;;;4918900;29;20059;-69
2023/12/15 08:48:19;;;;;;;81.93;34.25;;;7.20;99.90;;;;;;4887680;29;20052;-69
2023/12/15 08:50:45;;;;;;;85.65;34.55;;;7.20;99.90;;;;;;4918844;29;20404;-70
2023/12/15 08:53:12;;;;;;;82.18;34.42;;;7.20;99.90;;;;;;4934602;29;20084;-69
2023/12/15 08:55:38;;;;;;;87.45;34.95;;;7.20;99.90;;;;;;4919004;29;20484;-69
2023/12/15 08:58:04;;;;;;;88.75;34.47;;;7.20;99.90;;;;;;4918786;29;20055;-69
2023/12/15 09:00:30;;;;;;;82.47;33.75;;;7.20;99.90;;;;;;4918715;29;20460;-69
2023/12/15 09:02:57;;;;;;;73.85;29.95;;;7.20;99.90;;;;;;4918592;29;20118;-69
2023/12/15 09:05:23;;;;;;;68.93;31.63;;;7.20;99.90;;;;;;4934702;29;20054;-69
2023/12/15 09:07:51;;;;;;;80.15;34.20;;;7.30;99.90;;;;;;4934458;29;20051;-69
2023/12/15 09:10:17;;;;;;;78.05;32.08;;;7.30;99.90;;;;;;4903283;29;20039;-69
2023/12/15 09:12:44;;;;;;;72.05;31.73;;;7.30;99.90;;;;;;4902958;29;20094;-69
2023/12/15 09:15:10;;;;;;;68.03;31.15;;;7.30;99.90;;;;;;4916493;29;20052;-70
2023/12/15 09:17:36;;;;;;;78.35;32.15;;;7.30;99.90;;;;;;4918656;29;20115;-70
2023/12/15 09:20:03;;;;;;;70.63;31.85;;;7.40;99.90;;;;;;4934400;29;20563;-69
2023/12/15 09:22:30;;;;;;;69.60;30.50;;;7.40;99.90;;;;;;4918367;29;20050;-69
2023/12/15 09:24:55;;;;;;;68.30;28.45;;;7.40;99.90;;;;;;4918378;29;20124;-69
2023/12/15 09:27:21;;;;;;;65.22;29.00;;;7.40;99.90;;;;;;4918613;29;20051;-69
2023/12/15 09:29:47;;;;;;;60.08;26.77;;;7.50;99.90;;;;;;4934894;29;20047;-69
2023/12/15 09:32:13;;;;;;;61.63;26.77;;;7.50;99.90;;;;;;4934254;29;20051;-69
2023/12/15 09:34:38;;;;;;;61.85;26.05;;;7.50;99.90;;;;;;4918713;29;20048;-69
2023/12/15 09:37:04;;;;;;;61.05;26.85;;;7.50;99.90;;;;;;4902499;29;20107;-70
2023/12/15 09:39:30;;;;;;;51.03;24.27;;;7.50;99.90;;;;;;4905418;29;20099;-69
2023/12/15 09:41:55;;;;;;;57.10;23.88;;;7.50;99.90;;;;;;4937975;29;20126;-69
2023/12/15 09:44:21;;;;;;;56.55;24.17;;;7.50;99.90;;;;;;4922110;29;20043;-69
2023/12/15 09:46:48;;;;;;;50.22;23.83;;;7.50;99.90;;;;;;4891024;29;20047;-69
2023/12/15 09:49:17;;;;;;;56.58;24.10;;;7.60;99.90;;;;;;4937990;29;20079;-69
2023/12/15 09:51:50;;;;;;;52.15;23.60;;;7.60;99.90;;;;;;4921974;29;20131;-69
2023/12/15 09:54:16;;;;;;;53.03;23.55;;;7.70;99.90;;;;;;4937935;29;20099;-73
2023/12/15 09:56:42;;;;;;;55.38;23.33;;;7.70;99.90;;;;;;4937717;29;20086;-73
2023/12/15 09:59:08;;;;;;;50.10;21.30;;;7.70;99.90;;;;;;4937778;29;20048;-73
2023/12/15 10:01:37;;;;;;;57.42;23.27;;;7.70;99.90;;;;;;4890782;29;20391;-73
2023/12/15 10:04:07;;;;;;;52.92;22.33;;;7.80;99.90;;;;;;4937868;29;20043;-73
2023/12/15 10:06:36;;;;;;;49.50;21.35;;;7.80;99.90;;;;;;4953929;29;20055;-72
2023/12/15 10:09:09;;;;;;;44.55;19.30;;;7.90;99.90;;;;;;4921907;29;20055;-73
2023/12/15 10:11:36;;;;;;;44.42;19.83;;;7.90;99.90;;;;;;4921695;29;20044;-72
2023/12/15 10:14:04;;;;;;;47.55;19.02;;;8.00;99.90;;;;;;4921686;29;20048;-73
2023/12/15 10:16:30;;;;;;;45.80;19.60;;;7.90;99.90;;;;;;4921643;29;20099;-73
2023/12/15 10:18:56;;;;;;;46.38;19.42;;;8.00;99.90;;;;;;4905784;29;20087;-73
2023/12/15 10:21:22;;;;;;;46.97;18.55;;;8.00;99.90;;;;;;4921581;29;20047;-73
2023/12/15 10:23:48;;;;;;;42.67;18.50;;;8.00;99.90;;;;;;4906012;29;20050;-73
2023/12/15 10:26:14;;;;;;;42.08;18.75;;;8.10;99.90;;;;;;4921604;29;20122;-73
2023/12/15 10:28:41;;;;;;;43.30;18.00;;;8.10;99.90;;;;;;4921640;29;20492;-72
2023/12/15 10:31:07;;;;;;;42.83;17.70;;;8.20;99.90;;;;;;4937293;29;20044;-72
2023/12/15 10:33:34;;;;;;;43.35;17.15;;;8.20;99.90;;;;;;4921351;29;20103;-72
2023/12/15 10:36:01;;;;;;;44.97;16.83;;;8.20;99.90;;;;;;4937219;29;20062;-72
2023/12/15 10:38:29;;;;;;;43.53;15.77;;;8.20;99.90;;;;;;4921292;29;20074;-72
2023/12/15 10:40:56;;;;;;;39.65;15.48;;;8.20;99.90;;;;;;4921537;29;20103;-72
2023/12/15 10:43:22;;;;;;;41.22;15.63;;;8.20;99.90;;;;;;4921441;29;20118;-72
2023/12/15 10:45:51;;;;;;;44.72;16.23;;;8.20;99.90;;;;;;4920972;29;20131;-72
2023/12/15 10:48:18;;;;;;;40.95;14.98;;;8.20;99.90;;;;;;4937236;29;20480;-72
2023/12/15 10:50:45;;;;;;;40.17;15.20;;;8.30;99.90;;;;;;4920656;29;20126;-72
2023/12/15 10:53:15;;;;;;;39.45;14.45;;;8.30;99.90;;;;;;4920986;29;20044;-72
2023/12/15 10:55:46;;;;;;;38.90;14.90;;;8.40;99.90;;;;;;4920961;29;20055;-72
2023/12/15 10:58:13;;;;;;;38.75;14.88;;;8.40;99.90;;;;;;4920752;29;20090;-72
2023/12/15 11:00:39;;;;;;;41.72;14.77;;;8.40;99.90;;;;;;4937001;29;20062;-72
2023/12/15 11:03:10;;;;;;;34.70;13.90;;;8.30;99.90;;;;;;4952780;29;20043;-72
2023/12/15 11:05:37;;;;;;;38.15;13.65;;;8.40;99.90;;;;;;4920876;29;20066;-69
2023/12/15 11:08:03;;;;;;;42.60;13.60;;;8.40;99.90;;;;;;4920998;29;20400;-69
2023/12/15 11:10:29;;;;;;;35.00;12.20;;;8.40;99.90;;;;;;4920721;29;20047;-69
2023/12/15 11:12:55;;;;;;;37.97;13.50;;;8.50;99.90;;;;;;4905219;29;20051;-69
2023/12/15 11:15:23;;;;;;;37.42;12.82;;;8.50;99.90;;;;;;4904675;29;20052;-69
2023/12/15 11:17:53;;;;;;;42.20;13.10;;;8.50;99.90;;;;;;4920609;29;20048;-69
2023/12/15 11:20:19;;;;;;;37.20;12.73;;;8.50;99.90;;;;;;4920449;29;20055;-69
2023/12/15 11:22:53;;;;;;;34.78;12.60;;;8.50;99.90;;;;;;4920530;29;20043;-69
2023/12/15 11:25:21;;;;;;;35.10;11.93;;;8.50;99.90;;;;;;4920434;29;20051;-69
2023/12/15 11:28:08;;;;;;;34.60;11.95;;;8.60;99.90;;;;;;4936380;29;20304;-68
2023/12/15 11:30:40;;;;;;;38.80;11.52;;;8.60;99.90;;;;;;4904566;29;20051;-69
2023/12/15 11:33:26;;;;;;;36.22;10.95;;;8.60;99.90;;;;;;4920377;29;20084;-69
2023/12/15 11:36:01;;;;;;;34.10;10.25;;;8.60;99.90;;;;;;4942187;29;20047;-69
2023/12/15 11:38:27;;;;;;;39.60;11.00;;;8.60;99.90;;;;;;4936073;29;20047;-69
2023/12/15 11:40:54;;;;;;;36.80;9.98;;;8.60;99.90;;;;;;4920114;29;20040;-69
2023/12/15 11:43:20;;;;;;;38.10;10.38;;;8.70;99.90;;;;;;4935959;29;20048;-69
2023/12/15 11:45:48;;;;;;;30.15;9.85;;;8.70;99.90;;;;;;4920019;29;20503;-68
2023/12/15 11:48:14;;;;;;;39.47;10.30;;;8.70;99.90;;;;;;4920192;29;20043;-69
2023/12/15 11:50:43;;;;;;;34.95;9.52;;;8.70;99.90;;;;;;4936089;29;20043;-69
2023/12/15 11:53:13;;;;;;;31.20;8.90;;;8.80;99.90;;;;;;4919867;29;20040;-68
2023/12/15 11:55:45;;;;;;;34.97;9.07;;;8.70;99.90;;;;;;4935820;29;20095;-68
2023/12/15 11:58:14;;;;;;;31.45;9.15;;;8.80;99.90;;;;;;4920069;29;20040;-68
2023/12/15 12:00:41;;;;;;;38.28;8.93;;;8.70;99.90;;;;;;4919471;29;20487;-68
2023/12/15 12:03:09;;;;;;;38.22;9.40;;;8.80;99.90;;;;;;4935078;29;20138;-69
2023/12/15 12:05:35;;;;;;;32.42;8.25;;;8.80;99.90;;;;;;4935500;29;20083;-69
2023/12/15 12:08:01;;;;;;;31.88;8.10;;;8.80;99.90;;;;;;4919644;29;20075;-69
2023/12/15 12:10:31;;;;;;;34.95;8.90;;;8.80;99.90;;;;;;4919413;29;20040;-68
2023/12/15 12:12:58;;;;;;;36.08;8.77;;;8.80;99.90;;;;;;4919475;29;20126;-69
2023/12/15 12:15:24;;;;;;;34.35;8.35;;;8.80;99.90;;;;;;4933184;29;20060;-72
2023/12/15 12:17:51;;;;;;;31.90;8.07;;;8.80;99.90;;;;;;4951626;29;20047;-72
2023/12/15 12:20:17;;;;;;;36.92;8.43;;;8.80;99.90;;;;;;4935629;29;20047;-72
2023/12/15 12:22:44;;;;;;;36.03;8.52;;;8.80;99.90;;;;;;4904101;29;20134;-72
2023/12/15 12:25:11;;;;;;;31.35;7.72;;;8.80;99.90;;;;;;4954160;29;20047;-72
2023/12/15 12:27:37;;;;;;;30.05;7.72;;;8.80;99.90;;;;;;4938349;29;20035;-72
2023/12/15 12:30:13;;;;;;;30.75;7.53;;;8.80;99.90;;;;;;4938271;29;20050;-72